Letlhakane, Botswana
Current Conditions -  °F | °C
As of 8:00 PM on Friday 24 Oct 2014 (Local Time) from FBFT Reporting Station
Few Clouds Few Clouds  
Wind Chill: 77°   Ceiling: Unl
Heat Index: 78°   Visibility: 6mi
Dew Point: 52°   Wind: 12mph
Humidity: 41%   Direction: 70°ENE
Pressure: 29.97"   Gusts: NA
Location:  21.42°S, 25.59°E
Report Text: FBFT 241800Z 07010KT 9999 FEW025 FEW030CB 25/11 Q1015
Loading
Personal Weather Stations






























Interactive Weather Map
Tropical Storm Tracking
New forecast layout! Learn more

10-Day Weather Forecast

Advertisements
Track Severe Weather on mobile